createdAt,value
2023-05-14T00:01:08.232Z,20.70
2023-05-14T00:04:11.171Z,21.40
2023-05-14T00:07:14.019Z,20.20
2023-05-14T00:10:19.185Z,20.50
2023-05-14T00:13:21.890Z,19.90
2023-05-14T00:16:24.629Z,29.50
2023-05-14T00:19:27.873Z,21.90
2023-05-14T00:22:30.602Z,20.90
2023-05-14T00:25:33.345Z,20.40
2023-05-14T00:28:36.212Z,18.80
2023-05-14T00:31:39.013Z,17.60
2023-05-14T00:34:42.053Z,17.20
2023-05-14T00:37:44.882Z,17.70
2023-05-14T00:40:51.464Z,18.40
2023-05-14T00:43:54.305Z,18.30
2023-05-14T00:46:57.362Z,19.20
2023-05-14T00:50:01.188Z,17.60
2023-05-14T00:53:10.058Z,19.50
2023-05-14T00:56:15.161Z,19.20
2023-05-14T00:59:17.916Z,18.80
2023-05-14T01:02:20.823Z,18.20
2023-05-14T01:05:28.643Z,17.00
2023-05-14T01:09:01.860Z,17.00
2023-05-14T01:12:27.082Z,16.40
2023-05-14T01:15:36.172Z,21.30
2023-05-14T01:18:41.549Z,22.80
2023-05-14T01:21:44.370Z,17.80
2023-05-14T01:24:47.360Z,16.80
2023-05-14T01:28:03.964Z,17.30
2023-05-14T01:31:25.193Z,16.40
2023-05-14T01:34:30.102Z,15.80
2023-05-14T01:37:33.258Z,15.10
2023-05-14T01:40:37.370Z,14.70
2023-05-14T01:43:41.161Z,15.10
2023-05-14T01:46:44.068Z,17.00
2023-05-14T01:49:46.797Z,14.80
2023-05-14T01:52:51.288Z,16.00
2023-05-14T01:55:54.124Z,16.50
2023-05-14T01:58:57.118Z,16.40
2023-05-14T02:02:00.405Z,17.50
2023-05-14T02:05:04.909Z,17.90
2023-05-14T02:08:09.656Z,17.70
2023-05-14T02:11:12.622Z,19.30
2023-05-14T02:14:15.785Z,16.10
2023-05-14T02:17:18.964Z,18.80
2023-05-14T02:20:21.817Z,16.60
2023-05-14T02:23:34.048Z,17.10
2023-05-14T02:26:41.189Z,16.70
2023-05-14T02:29:44.766Z,16.80
2023-05-14T02:32:47.528Z,23.60
2023-05-14T02:35:51.008Z,19.60
2023-05-14T02:38:53.953Z,24.50
2023-05-14T02:41:58.143Z,20.30
2023-05-14T02:45:01.063Z,17.80
2023-05-14T02:48:03.984Z,17.40
2023-05-14T02:51:07.902Z,17.60
2023-05-14T02:54:10.784Z,15.80
2023-05-14T02:57:13.714Z,18.40
2023-05-14T03:00:16.893Z,17.20
2023-05-14T03:03:20.562Z,15.90
2023-05-14T03:06:23.721Z,23.10
2023-05-14T03:09:26.570Z,25.20
2023-05-14T03:12:29.320Z,18.10
2023-05-14T03:15:32.031Z,16.00
2023-05-14T03:18:36.674Z,15.90
2023-05-14T03:21:39.806Z,16.60
2023-05-14T03:24:42.655Z,15.10
2023-05-14T03:27:46.023Z,15.50
2023-05-14T03:30:49.146Z,16.20
2023-05-14T03:33:52.262Z,15.90
2023-05-14T03:36:55.189Z,16.90
2023-05-14T03:39:57.938Z,15.90
2023-05-14T03:43:00.994Z,16.30
2023-05-14T03:46:03.848Z,17.70
2023-05-14T03:49:07.283Z,16.80
2023-05-14T03:52:10.830Z,16.80
2023-05-14T03:55:13.628Z,16.10
2023-05-14T03:58:17.453Z,18.10
2023-05-14T04:01:20.292Z,18.40
2023-05-14T04:04:23.164Z,17.60
2023-05-14T04:07:26.054Z,16.90
2023-05-14T04:10:29.892Z,15.00
2023-05-14T04:13:32.837Z,15.40
2023-05-14T04:16:35.883Z,14.90
2023-05-14T04:19:39.376Z,14.60
2023-05-14T04:22:42.218Z,14.90
2023-05-14T04:25:45.059Z,15.90
2023-05-14T04:28:47.818Z,15.00
2023-05-14T04:31:50.661Z,16.00
2023-05-14T04:34:53.403Z,16.30
2023-05-14T04:37:56.860Z,15.40
2023-05-14T04:40:59.781Z,17.10
2023-05-14T04:44:03.554Z,17.40
2023-05-14T04:47:07.113Z,17.30
2023-05-14T04:50:09.948Z,19.60
2023-05-14T04:53:12.725Z,19.50
2023-05-14T04:56:15.484Z,21.30
2023-05-14T04:59:18.262Z,22.70
2023-05-14T05:02:21.155Z,21.70
2023-05-14T05:05:24.309Z,22.70
2023-05-14T05:08:27.006Z,20.90
2023-05-14T05:11:29.930Z,22.40
2023-05-14T05:14:32.798Z,23.70
2023-05-14T05:17:35.900Z,22.80
2023-05-14T05:20:38.779Z,26.80
2023-05-14T05:23:41.529Z,24.20
2023-05-14T05:26:44.315Z,22.40
2023-05-14T05:29:47.007Z,20.00
2023-05-14T05:32:49.868Z,18.60
2023-05-14T05:35:52.827Z,18.40
2023-05-14T05:38:56.203Z,19.00
2023-05-14T05:41:58.926Z,18.30
2023-05-14T05:45:01.643Z,21.00
2023-05-14T05:48:04.989Z,21.00
2023-05-14T05:51:07.936Z,17.00
2023-05-14T05:54:10.682Z,15.00
2023-05-14T05:57:13.761Z,15.60
2023-05-14T06:00:17.123Z,14.80
2023-05-14T06:03:20.001Z,14.90
2023-05-14T06:06:22.912Z,10.70
2023-05-14T06:09:25.685Z,8.10
2023-05-14T06:12:28.450Z,8.20
2023-05-14T06:15:31.394Z,8.80
2023-05-14T06:18:34.157Z,9.40
2023-05-14T06:21:37.041Z,9.60
2023-05-14T06:24:39.798Z,9.00
2023-05-14T06:27:42.802Z,7.90
2023-05-14T06:30:45.687Z,9.10
2023-05-14T06:33:48.408Z,7.90
2023-05-14T06:36:51.206Z,8.90
2023-05-14T06:39:54.737Z,9.40
2023-05-14T06:42:59.251Z,9.10
2023-05-14T06:46:02.106Z,8.40
2023-05-14T06:49:05.438Z,7.90
2023-05-14T06:52:08.298Z,8.40
2023-05-14T06:55:11.103Z,7.90
2023-05-14T06:58:14.231Z,7.90
2023-05-14T07:01:17.616Z,7.40
2023-05-14T07:04:20.842Z,7.60
2023-05-14T07:07:23.662Z,7.10
2023-05-14T07:10:26.567Z,8.70
2023-05-14T07:13:29.927Z,7.50
2023-05-14T07:16:32.741Z,7.30
2023-05-14T07:19:35.593Z,7.50
2023-05-14T07:22:38.407Z,8.30
2023-05-14T07:25:41.116Z,6.30
2023-05-14T07:28:44.148Z,8.30
2023-05-14T07:31:47.218Z,8.10
2023-05-14T07:34:49.988Z,6.40
2023-05-14T07:37:52.948Z,6.60
2023-05-14T07:40:56.221Z,7.90
2023-05-14T07:43:58.932Z,7.40
2023-05-14T07:47:01.646Z,7.80
2023-05-14T07:50:04.804Z,7.20
2023-05-14T07:53:08.069Z,7.30
2023-05-14T07:56:10.812Z,6.90
2023-05-14T07:59:13.570Z,6.70
2023-05-14T08:02:17.097Z,6.30
2023-05-14T08:05:20.638Z,6.50
2023-05-14T08:08:23.413Z,6.70
2023-05-14T08:11:26.224Z,6.40
2023-05-14T08:14:29.115Z,5.60
2023-05-14T08:17:31.907Z,6.80
2023-05-14T08:20:34.731Z,6.60
2023-05-14T08:23:37.506Z,6.30
2023-05-14T08:26:40.237Z,6.20
2023-05-14T08:29:43.144Z,6.30
2023-05-14T08:32:46.030Z,6.20
2023-05-14T08:35:52.868Z,6.00
2023-05-14T08:38:55.814Z,5.50
2023-05-14T08:42:00.881Z,5.90
2023-05-14T08:45:06.215Z,5.90
2023-05-14T08:48:15.661Z,5.30
2023-05-14T08:51:19.406Z,5.10
2023-05-14T08:54:23.924Z,5.30
2023-05-14T08:57:28.022Z,4.80
2023-05-14T09:00:31.100Z,4.10
2023-05-14T09:03:34.978Z,4.30
2023-05-14T09:06:38.376Z,3.80
2023-05-14T09:09:41.551Z,2.90
2023-05-14T09:12:44.519Z,3.90
2023-05-14T09:15:48.975Z,3.50
2023-05-14T09:18:52.331Z,3.30
2023-05-14T09:22:01.008Z,3.30
2023-05-14T09:28:30.747Z,3.20
2023-05-14T09:31:33.921Z,3.40
2023-05-14T09:34:39.703Z,2.80
2023-05-14T09:37:44.200Z,3.90
2023-05-14T09:40:46.918Z,3.30
2023-05-14T09:43:51.447Z,3.10
2023-05-14T09:46:55.116Z,3.20
2023-05-14T09:49:57.888Z,3.10
2023-05-14T09:53:01.003Z,3.00
2023-05-14T09:56:03.874Z,3.40
2023-05-14T09:59:06.586Z,3.20
2023-05-14T10:02:26.288Z,2.70
2023-05-14T10:05:29.753Z,3.00
2023-05-14T10:08:41.328Z,2.80
2023-05-14T10:11:45.585Z,2.80
2023-05-14T10:14:53.304Z,2.20
2023-05-14T10:18:00.954Z,2.50
2023-05-14T10:21:08.072Z,2.60
2023-05-14T10:24:11.417Z,2.50
2023-05-14T10:27:15.329Z,2.10
2023-05-14T10:30:23.207Z,2.30
2023-05-14T10:33:27.321Z,2.40
2023-05-14T10:36:30.169Z,2.70
2023-05-14T10:39:51.243Z,3.60
2023-05-14T10:42:59.194Z,2.60
2023-05-14T10:46:02.970Z,2.40
2023-05-14T10:49:06.038Z,2.80
2023-05-14T10:52:09.548Z,2.90
2023-05-14T10:55:16.909Z,2.30
2023-05-14T10:58:19.750Z,2.30
2023-05-14T11:01:24.282Z,2.20
2023-05-14T11:04:28.230Z,2.70
2023-05-14T11:07:33.822Z,2.30
2023-05-14T11:10:39.007Z,2.00
2023-05-14T11:13:42.913Z,2.50
2023-05-14T11:16:47.434Z,2.00
2023-05-14T11:19:51.232Z,1.80
2023-05-14T11:22:55.390Z,1.70
2023-05-14T11:25:58.342Z,1.90
2023-05-14T11:29:01.321Z,1.60
2023-05-14T11:32:06.734Z,2.50
2023-05-14T11:35:10.189Z,2.30
2023-05-14T11:38:21.285Z,2.10
2023-05-14T11:41:24.528Z,1.90
2023-05-14T11:44:27.408Z,2.30
2023-05-14T11:47:31.732Z,2.50
2023-05-14T11:50:36.721Z,2.30
2023-05-14T11:53:39.553Z,2.20
2023-05-14T11:56:42.285Z,2.30
2023-05-14T11:59:46.276Z,2.10
2023-05-14T12:02:50.143Z,1.90
2023-05-14T12:06:00.716Z,2.00
2023-05-14T12:09:05.904Z,2.40
2023-05-14T12:12:12.408Z,2.00
2023-05-14T12:15:17.428Z,2.10
2023-05-14T12:18:24.577Z,1.80
2023-05-14T12:21:29.401Z,2.00
2023-05-14T12:24:32.154Z,2.00
2023-05-14T12:27:37.753Z,1.90
2023-05-14T12:30:41.338Z,2.40
2023-05-14T12:33:44.072Z,2.30
2023-05-14T12:36:46.815Z,2.60
2023-05-14T12:39:49.878Z,2.30
2023-05-14T12:42:54.048Z,2.80
2023-05-14T12:45:57.809Z,2.10
2023-05-14T12:49:00.593Z,2.10
2023-05-14T12:52:22.815Z,2.00
2023-05-14T12:55:28.190Z,2.00
2023-05-14T12:58:30.903Z,1.70
2023-05-14T13:01:33.790Z,1.80
2023-05-14T13:04:37.437Z,1.80
2023-05-14T13:07:40.642Z,1.70
2023-05-14T13:10:44.667Z,1.90
2023-05-14T13:13:47.585Z,2.20
2023-05-14T13:16:50.852Z,1.50
2023-05-14T13:19:53.777Z,1.80
2023-05-14T13:22:57.225Z,2.00
2023-05-14T13:25:59.957Z,2.10
2023-05-14T13:29:02.915Z,2.40
2023-05-14T13:32:06.274Z,2.10
2023-05-14T13:35:09.576Z,1.90
2023-05-14T13:38:12.297Z,1.80
2023-05-14T13:41:15.060Z,1.90
2023-05-14T13:44:17.915Z,1.90
2023-05-14T13:47:20.729Z,2.00
2023-05-14T13:50:23.573Z,2.30
2023-05-14T13:53:27.242Z,1.80
2023-05-14T13:56:30.036Z,2.10
2023-05-14T13:59:32.999Z,2.50
2023-05-14T14:02:35.770Z,2.10
2023-05-14T14:05:38.918Z,1.90
2023-05-14T14:08:41.794Z,1.90
2023-05-14T14:11:44.885Z,2.10
2023-05-14T14:14:48.207Z,2.40
2023-05-14T14:17:51.051Z,2.00
2023-05-14T14:20:53.807Z,2.30
2023-05-14T14:23:56.550Z,2.10
2023-05-14T14:26:59.295Z,2.50
2023-05-14T14:30:02.247Z,2.30
2023-05-14T14:33:05.373Z,2.10
2023-05-14T14:36:09.060Z,2.20
2023-05-14T14:39:11.864Z,1.90
2023-05-14T14:42:14.674Z,2.40
2023-05-14T14:45:17.737Z,2.50
2023-05-14T14:48:28.347Z,2.50
2023-05-14T14:51:31.631Z,2.10
2023-05-14T14:54:34.359Z,2.50
2023-05-14T14:57:37.110Z,2.40
2023-05-14T15:00:40.413Z,2.30
2023-05-14T15:03:45.786Z,2.10
2023-05-14T15:06:48.913Z,2.70
2023-05-14T15:09:51.659Z,2.20
2023-05-14T15:12:57.863Z,2.40
2023-05-14T15:16:00.791Z,2.70
2023-05-14T15:19:03.730Z,2.40
2023-05-14T15:22:06.564Z,2.80
2023-05-14T15:25:09.755Z,3.00
2023-05-14T15:28:12.488Z,2.30
2023-05-14T15:31:15.985Z,2.90
2023-05-14T15:34:18.763Z,2.40
2023-05-14T15:37:23.878Z,2.30
2023-05-14T15:40:29.793Z,2.30
2023-05-14T15:43:32.573Z,2.60
2023-05-14T15:46:35.807Z,2.30
2023-05-14T15:49:38.744Z,2.20
2023-05-14T15:52:41.582Z,2.50
2023-05-14T15:55:44.736Z,2.60
2023-05-14T15:58:48.474Z,2.60
2023-05-14T16:01:51.479Z,2.30
2023-05-14T16:04:54.290Z,2.50
2023-05-14T16:07:57.094Z,1.80
2023-05-14T16:10:59.898Z,2.30
2023-05-14T16:14:02.729Z,2.70
2023-05-14T16:17:05.559Z,3.40
2023-05-14T16:20:09.155Z,3.50
2023-05-14T16:23:11.963Z,3.10
2023-05-14T16:26:14.705Z,2.80
2023-05-14T16:29:17.760Z,2.30
2023-05-14T16:32:21.738Z,2.90
2023-05-14T16:35:24.568Z,2.90
2023-05-14T16:38:27.336Z,2.60
2023-05-14T16:41:30.258Z,3.00
2023-05-14T16:44:33.048Z,2.60
2023-05-14T16:47:35.841Z,3.50
2023-05-14T16:50:38.727Z,4.00
2023-05-14T16:53:41.439Z,3.60
2023-05-14T16:56:48.157Z,3.60
2023-05-14T16:59:51.317Z,3.40
2023-05-14T17:02:54.343Z,3.50
2023-05-14T17:05:57.318Z,3.40
2023-05-14T17:09:00.167Z,3.50
2023-05-14T17:12:03.303Z,3.60
2023-05-14T17:15:07.310Z,3.80
2023-05-14T17:18:12.066Z,3.60
2023-05-14T17:21:15.238Z,4.80
2023-05-14T17:24:18.333Z,3.40
2023-05-14T17:27:21.470Z,3.90
2023-05-14T17:30:24.992Z,4.30
2023-05-14T17:33:28.530Z,4.00
2023-05-14T17:36:32.391Z,4.10
2023-05-14T17:39:35.924Z,4.40
2023-05-14T17:42:39.107Z,4.20
2023-05-14T17:45:53.031Z,3.50
2023-05-14T17:48:58.396Z,4.00
2023-05-14T17:52:02.182Z,3.90
2023-05-14T17:55:05.587Z,3.90
2023-05-14T17:58:08.508Z,3.90
2023-05-14T18:01:11.667Z,9.10
2023-05-14T18:04:15.113Z,7.60
2023-05-14T18:07:19.228Z,11.10
2023-05-14T18:10:22.025Z,9.10
2023-05-14T18:13:24.870Z,8.90
2023-05-14T18:16:28.415Z,7.90
2023-05-14T18:19:31.344Z,7.90
2023-05-14T18:22:34.099Z,7.90
2023-05-14T18:25:36.894Z,7.70
2023-05-14T18:28:39.967Z,7.20
2023-05-14T18:31:42.670Z,10.50
2023-05-14T18:34:45.370Z,10.10
2023-05-14T18:37:48.142Z,13.50
2023-05-14T18:40:51.100Z,19.90
2023-05-14T18:43:53.830Z,14.40
2023-05-14T18:46:56.673Z,13.90
2023-05-14T18:50:02.107Z,22.90
2023-05-14T18:53:05.435Z,16.10
2023-05-14T18:56:09.669Z,14.30
2023-05-14T18:59:12.446Z,23.10
2023-05-14T19:02:15.380Z,29.60
2023-05-14T19:05:18.260Z,24.00
2023-05-14T19:08:21.157Z,20.90
2023-05-14T19:11:24.075Z,18.10
2023-05-14T19:14:26.829Z,23.00
2023-05-14T19:17:32.769Z,21.90
2023-05-14T19:20:35.794Z,18.40
2023-05-14T19:23:39.443Z,14.80
2023-05-14T19:26:42.238Z,11.30
2023-05-14T19:29:45.112Z,11.40
2023-05-14T19:32:48.460Z,8.60
2023-05-14T19:35:52.101Z,14.00
2023-05-14T19:38:54.935Z,15.00
2023-05-14T19:41:57.688Z,15.90
2023-05-14T19:45:00.575Z,13.10
2023-05-14T19:48:06.166Z,21.80
2023-05-14T19:51:09.119Z,15.70
2023-05-14T19:54:11.925Z,17.80
2023-05-14T19:57:14.821Z,28.70
2023-05-14T20:00:17.865Z,22.40
2023-05-14T20:03:31.194Z,14.80
2023-05-14T20:06:34.317Z,16.80
2023-05-14T20:09:37.088Z,16.40
2023-05-14T20:12:40.020Z,17.00
2023-05-14T20:15:43.373Z,10.80
2023-05-14T20:18:46.336Z,10.70
2023-05-14T20:21:49.081Z,10.30
2023-05-14T20:24:52.883Z,9.30
2023-05-14T20:27:55.723Z,9.70
2023-05-14T20:31:03.988Z,8.00
2023-05-14T20:34:07.060Z,7.60
2023-05-14T20:37:10.175Z,8.30
2023-05-14T20:40:13.071Z,9.00
2023-05-14T20:43:16.119Z,8.50
2023-05-14T20:46:19.088Z,9.10
2023-05-14T20:49:21.948Z,7.10
2023-05-14T20:52:25.097Z,7.00
2023-05-14T20:55:28.202Z,6.50
2023-05-14T20:58:31.050Z,6.30
2023-05-14T21:01:33.835Z,5.50
2023-05-14T21:04:36.646Z,6.70
2023-05-14T21:07:39.735Z,5.80
2023-05-14T21:10:42.488Z,6.10
2023-05-14T21:13:45.259Z,5.50
2023-05-14T21:16:48.620Z,5.80
2023-05-14T21:19:51.731Z,5.10
2023-05-14T21:22:54.496Z,5.20
2023-05-14T21:25:57.927Z,5.70
2023-05-14T21:29:00.929Z,5.20
2023-05-14T21:32:04.088Z,5.30
2023-05-14T21:35:07.493Z,5.10
2023-05-14T21:38:10.339Z,5.30
2023-05-14T21:41:13.323Z,5.00
2023-05-14T21:44:16.099Z,4.90
2023-05-14T21:47:19.880Z,5.20
2023-05-14T21:50:22.617Z,5.60
2023-05-14T21:53:25.344Z,4.90
2023-05-14T21:56:28.153Z,5.80
2023-05-14T21:59:30.873Z,5.90
2023-05-14T22:02:33.614Z,5.40
2023-05-14T22:05:36.522Z,6.10
2023-05-14T22:08:39.218Z,5.10
2023-05-14T22:11:41.933Z,4.90
2023-05-14T22:14:44.808Z,4.60
2023-05-14T22:17:48.202Z,5.10
2023-05-14T22:20:51.296Z,5.40
2023-05-14T22:23:54.132Z,5.00
2023-05-14T22:27:22.206Z,5.10
2023-05-14T22:30:25.114Z,5.50
2023-05-14T22:33:27.865Z,5.10
2023-05-14T22:36:30.645Z,5.20
2023-05-14T22:39:33.468Z,5.20
2023-05-14T22:42:36.200Z,5.50
2023-05-14T22:45:38.923Z,6.30
2023-05-14T22:48:42.222Z,6.60
2023-05-14T22:51:44.979Z,6.70
2023-05-14T22:54:51.029Z,6.40
2023-05-14T22:57:53.954Z,6.70
2023-05-14T23:00:57.278Z,6.30
2023-05-14T23:04:00.238Z,6.40
2023-05-14T23:07:03.157Z,6.30
2023-05-14T23:10:06.732Z,6.40
2023-05-14T23:13:09.504Z,6.60
2023-05-14T23:16:12.267Z,6.30
2023-05-14T23:19:15.207Z,5.90
2023-05-14T23:22:18.547Z,6.20
2023-05-14T23:25:21.254Z,6.00
2023-05-14T23:28:24.153Z,6.00
2023-05-14T23:31:26.907Z,6.20
2023-05-14T23:34:29.624Z,6.40
2023-05-14T23:37:33.703Z,6.70
2023-05-14T23:40:36.582Z,7.40
2023-05-14T23:43:39.402Z,7.10
2023-05-14T23:46:42.169Z,6.90
2023-05-14T23:49:44.958Z,6.20
2023-05-14T23:52:47.694Z,6.40
2023-05-14T23:55:50.754Z,6.90
2023-05-14T23:58:53.828Z,6.50
